createdAt,value
2018-07-24T03:48:35.860Z,14.20
2018-07-24T03:51:04.089Z,14.30
2018-07-24T03:53:32.376Z,14.30
2018-07-24T03:56:00.598Z,14.30
2018-07-24T03:58:28.836Z,14.30
2018-07-24T04:00:57.070Z,14.40
2018-07-24T04:03:25.297Z,14.50
2018-07-24T04:05:53.648Z,14.50
2018-07-24T04:08:21.885Z,14.60
2018-07-24T04:10:50.110Z,14.90
2018-07-24T04:13:18.371Z,15.00
2018-07-24T04:15:46.601Z,15.10
2018-07-24T04:18:14.862Z,15.10
2018-07-24T04:20:43.088Z,15.20
2018-07-24T04:23:11.329Z,15.30
2018-07-24T04:25:39.548Z,15.50
2018-07-24T04:28:08.802Z,15.60
2018-07-24T04:30:37.027Z,15.60
2018-07-24T04:33:05.274Z,15.70
2018-07-24T04:35:33.496Z,15.70
2018-07-24T04:38:01.757Z,15.80
2018-07-24T04:40:29.980Z,15.90
2018-07-24T04:42:58.228Z,15.90
2018-07-24T04:45:26.456Z,16.00
2018-07-24T04:47:54.681Z,16.00
2018-07-24T04:50:22.947Z,16.10
2018-07-24T04:52:51.180Z,16.10
2018-07-24T04:55:19.432Z,16.30
2018-07-24T04:57:47.674Z,16.40
2018-07-24T05:00:15.916Z,16.60
2018-07-24T05:02:44.163Z,16.90
2018-07-24T05:05:12.423Z,17.10
2018-07-24T05:07:40.647Z,17.50
2018-07-24T05:10:08.901Z,17.70
2018-07-24T05:12:37.125Z,17.90
2018-07-24T05:15:05.372Z,18.00
2018-07-24T05:17:33.581Z,18.00
2018-07-24T05:20:01.971Z,18.10
2018-07-24T05:22:36.752Z,18.10
2018-07-24T05:25:05.083Z,18.20
2018-07-24T05:27:33.321Z,18.40
2018-07-24T05:30:01.590Z,18.50
2018-07-24T05:32:29.809Z,18.60
2018-07-24T05:34:58.060Z,18.70
2018-07-24T05:37:26.280Z,18.90
2018-07-24T05:39:54.526Z,19.00
2018-07-24T05:42:22.796Z,19.10
2018-07-24T05:44:51.046Z,19.20
2018-07-24T05:47:19.263Z,19.40
2018-07-24T05:49:47.501Z,19.50
2018-07-24T05:52:22.135Z,19.60
2018-07-24T05:54:50.373Z,19.80
2018-07-24T05:57:18.583Z,19.90
2018-07-24T05:59:46.817Z,20.00
2018-07-24T06:02:15.072Z,20.10
2018-07-24T06:04:43.332Z,20.30
2018-07-24T06:07:11.610Z,20.40
2018-07-24T06:09:39.826Z,20.50
2018-07-24T06:12:08.039Z,20.60
2018-07-24T06:14:36.270Z,20.80
2018-07-24T06:17:04.591Z,20.90
2018-07-24T06:19:32.793Z,21.10
2018-07-24T06:22:01.012Z,21.30
2018-07-24T06:24:29.253Z,21.50
2018-07-24T06:26:57.477Z,21.80
2018-07-24T06:29:25.712Z,22.10
2018-07-24T06:31:53.929Z,22.50
2018-07-24T06:34:22.188Z,23.10
2018-07-24T06:36:50.412Z,23.50
2018-07-24T06:39:18.636Z,23.50
2018-07-24T06:41:46.845Z,23.70
2018-07-24T06:44:15.116Z,23.80
2018-07-24T06:46:43.309Z,24.10
2018-07-24T06:49:11.539Z,24.10
2018-07-24T06:51:39.840Z,24.20
2018-07-24T06:54:08.019Z,24.30
2018-07-24T06:56:36.314Z,24.30
2018-07-24T06:59:04.504Z,24.50
2018-07-24T07:01:32.737Z,24.60
2018-07-24T07:04:00.959Z,24.80
2018-07-24T07:06:29.184Z,25.20
2018-07-24T07:09:02.016Z,25.50
2018-07-24T07:11:30.808Z,25.80
2018-07-24T07:13:59.028Z,26.20
2018-07-24T07:16:27.264Z,26.50
2018-07-24T07:18:55.490Z,26.70
2018-07-24T07:21:23.748Z,26.90
2018-07-24T07:23:51.951Z,27.00
2018-07-24T07:26:20.239Z,27.10
2018-07-24T07:28:48.428Z,27.30
2018-07-24T07:31:16.660Z,27.30
2018-07-24T07:33:44.883Z,27.40
2018-07-24T07:36:13.332Z,27.60
2018-07-24T07:38:41.544Z,27.90
2018-07-24T07:41:09.777Z,27.90
2018-07-24T07:43:37.994Z,27.90
2018-07-24T07:46:06.268Z,27.90
2018-07-24T07:48:34.489Z,27.60
2018-07-24T07:51:02.725Z,27.40
2018-07-24T07:53:30.940Z,27.30
2018-07-24T07:55:59.692Z,27.10
2018-07-24T07:58:27.971Z,27.00
2018-07-24T08:00:56.455Z,26.90
2018-07-24T08:03:24.677Z,26.90
2018-07-24T08:05:52.947Z,27.00
2018-07-24T08:08:21.168Z,27.00
2018-07-24T08:10:49.404Z,27.00
2018-07-24T08:13:17.628Z,27.10
2018-07-24T08:15:45.865Z,27.20
2018-07-24T08:18:14.083Z,27.20
2018-07-24T08:20:42.332Z,27.30
2018-07-24T08:23:10.544Z,27.20
2018-07-24T08:25:38.777Z,27.30
2018-07-24T08:28:07.027Z,27.20
2018-07-24T08:30:35.264Z,27.30
2018-07-24T08:33:03.500Z,27.40
2018-07-24T08:35:31.732Z,27.40
2018-07-24T08:37:59.956Z,27.50
2018-07-24T08:40:28.200Z,27.40
2018-07-24T08:42:56.423Z,27.50
2018-07-24T08:45:24.640Z,27.60
2018-07-24T08:47:52.887Z,27.80
2018-07-24T08:50:21.101Z,27.80
2018-07-24T08:52:49.390Z,27.90
2018-07-24T08:55:18.010Z,28.20
2018-07-24T08:57:45.848Z,28.20
2018-07-24T09:00:14.064Z,28.30
2018-07-24T09:02:42.296Z,28.60
2018-07-24T09:05:10.514Z,28.80
2018-07-24T09:07:38.752Z,28.50
2018-07-24T09:10:07.022Z,28.00
2018-07-24T09:12:35.257Z,27.60
2018-07-24T09:15:03.476Z,27.40
2018-07-24T09:17:31.712Z,27.30
2018-07-24T09:19:59.943Z,27.70
2018-07-24T09:22:28.177Z,27.90
2018-07-24T09:24:56.404Z,27.90
2018-07-24T09:27:24.642Z,27.90
2018-07-24T09:29:52.869Z,27.70
2018-07-24T09:32:21.108Z,27.80
2018-07-24T09:34:49.348Z,27.60
2018-07-24T09:37:17.580Z,27.30
2018-07-24T09:39:45.797Z,27.30
2018-07-24T09:42:14.052Z,27.50
2018-07-24T09:44:42.260Z,27.90
2018-07-24T09:47:10.584Z,28.20
2018-07-24T09:49:38.796Z,28.40
2018-07-24T09:52:07.032Z,28.40
2018-07-24T09:54:35.245Z,28.60
2018-07-24T09:57:03.548Z,28.40
2018-07-24T09:59:31.788Z,28.70
2018-07-24T10:02:00.012Z,28.70
2018-07-24T10:04:28.228Z,29.00
2018-07-24T10:06:56.457Z,28.90
2018-07-24T10:09:24.670Z,28.90
2018-07-24T10:11:52.903Z,29.00
2018-07-24T10:14:21.262Z,29.00
2018-07-24T10:16:49.532Z,29.00
2018-07-24T10:19:17.758Z,29.10
2018-07-24T10:21:45.988Z,29.50
2018-07-24T10:24:14.195Z,29.60
2018-07-24T10:26:42.432Z,29.70
2018-07-24T10:29:10.647Z,29.60
2018-07-24T10:31:38.868Z,29.70
2018-07-24T10:34:07.112Z,29.80
2018-07-24T10:36:35.386Z,30.00
2018-07-24T10:39:06.041Z,30.30
2018-07-24T10:41:34.264Z,30.30
2018-07-24T10:44:02.510Z,30.20
2018-07-24T10:46:30.732Z,29.80
2018-07-24T10:48:58.968Z,29.50
2018-07-24T10:51:27.180Z,29.40
2018-07-24T10:53:55.416Z,29.50
2018-07-24T10:56:23.654Z,29.40
2018-07-24T10:58:51.905Z,29.50
2018-07-24T11:01:20.128Z,29.80
2018-07-24T11:03:48.380Z,29.90
2018-07-24T11:06:16.616Z,30.20
2018-07-24T11:08:44.856Z,30.50
2018-07-24T11:11:13.068Z,30.20
2018-07-24T11:13:41.320Z,30.20
2018-07-24T11:16:09.543Z,29.80
2018-07-24T11:18:37.976Z,29.50
2018-07-24T11:21:06.393Z,29.50
2018-07-24T11:23:34.632Z,29.50
2018-07-24T11:26:02.856Z,29.70
2018-07-24T11:28:31.088Z,29.60
2018-07-24T11:30:59.303Z,29.60
2018-07-24T11:33:27.617Z,29.60
2018-07-24T11:35:56.066Z,29.80
2018-07-24T11:38:24.121Z,29.70
2018-07-24T11:40:52.345Z,30.00
2018-07-24T11:43:20.576Z,30.10
2018-07-24T11:45:48.788Z,30.50
2018-07-24T11:48:17.025Z,30.60
2018-07-24T11:50:45.240Z,30.50
2018-07-24T11:53:13.477Z,30.40
2018-07-24T11:55:41.697Z,30.20
2018-07-24T11:58:09.945Z,29.90
2018-07-24T12:00:38.167Z,29.90
2018-07-24T12:03:06.541Z,29.90
2018-07-24T12:05:34.755Z,29.90
2018-07-24T12:08:02.981Z,30.10
2018-07-24T12:10:31.193Z,30.50
2018-07-24T12:12:59.684Z,30.80
2018-07-24T12:15:27.921Z,30.60
2018-07-24T12:17:56.156Z,30.40
2018-07-24T12:20:24.386Z,30.50
2018-07-24T12:22:52.623Z,30.30
2018-07-24T12:25:20.848Z,30.40
2018-07-24T12:27:49.077Z,30.50
2018-07-24T12:30:17.307Z,30.30
2018-07-24T12:32:45.517Z,30.40
2018-07-24T12:35:13.745Z,30.30
2018-07-24T12:37:41.971Z,30.30
2018-07-24T12:40:10.264Z,30.40
2018-07-24T12:42:38.476Z,30.20
2018-07-24T12:45:06.716Z,30.40
2018-07-24T12:47:34.929Z,30.40
2018-07-24T12:50:03.173Z,30.30
2018-07-24T12:52:31.428Z,30.10
2018-07-24T12:54:59.658Z,30.10
2018-07-24T12:57:27.879Z,30.40
2018-07-24T12:59:56.113Z,30.40
2018-07-24T13:02:24.336Z,30.60
2018-07-24T13:04:52.679Z,30.70
2018-07-24T13:07:20.920Z,30.80
2018-07-24T13:09:49.158Z,30.80
2018-07-24T13:12:17.372Z,30.80
2018-07-24T13:14:45.613Z,30.70
2018-07-24T13:17:13.831Z,30.50
2018-07-24T13:19:42.085Z,30.50
2018-07-24T13:22:10.300Z,30.50
2018-07-24T13:24:38.561Z,30.40
2018-07-24T13:27:06.885Z,30.50
2018-07-24T13:29:35.112Z,30.60
2018-07-24T13:32:03.375Z,30.70
2018-07-24T13:34:31.593Z,30.80
2018-07-24T13:36:59.816Z,30.90
2018-07-24T13:39:28.048Z,30.40
2018-07-24T13:41:56.276Z,30.20
2018-07-24T13:44:24.510Z,30.00
2018-07-24T13:46:53.081Z,29.70
2018-07-24T13:49:21.309Z,29.60
2018-07-24T13:51:49.533Z,29.50
2018-07-24T13:54:17.768Z,29.60
2018-07-24T13:56:45.984Z,29.70
2018-07-24T13:59:14.224Z,30.00
2018-07-24T14:01:42.439Z,30.30
2018-07-24T14:04:10.850Z,30.30
2018-07-24T14:06:39.209Z,30.60
2018-07-24T14:09:08.896Z,30.80
2018-07-24T14:11:37.110Z,30.50
2018-07-24T14:14:05.339Z,30.50
2018-07-24T14:16:33.584Z,30.20
2018-07-24T14:19:01.826Z,30.00
2018-07-24T14:21:30.069Z,30.10
2018-07-24T14:23:58.285Z,30.10
2018-07-24T14:26:26.516Z,30.00
2018-07-24T14:28:54.740Z,29.90
2018-07-24T14:31:23.025Z,29.90
2018-07-24T14:33:51.205Z,30.00
2018-07-24T14:36:19.436Z,30.10
2018-07-24T14:38:47.651Z,29.80
2018-07-24T14:41:15.884Z,29.70
2018-07-24T14:43:44.104Z,29.50
2018-07-24T14:46:12.337Z,29.40
2018-07-24T14:48:40.560Z,29.40
2018-07-24T14:51:08.810Z,29.50
2018-07-24T14:53:37.035Z,29.60
2018-07-24T14:56:05.352Z,29.50
2018-07-24T14:58:33.601Z,29.30
2018-07-24T15:01:01.829Z,29.10
2018-07-24T15:03:30.852Z,28.90
2018-07-24T15:05:59.199Z,29.00
2018-07-24T15:08:27.415Z,29.10
2018-07-24T15:10:55.672Z,29.20
2018-07-24T15:13:23.931Z,29.20
2018-07-24T15:15:52.173Z,29.10
2018-07-24T15:18:20.384Z,28.80
2018-07-24T15:20:48.665Z,28.70
2018-07-24T15:23:16.885Z,28.60
2018-07-24T15:25:45.124Z,28.50
2018-07-24T15:28:13.336Z,28.50
2018-07-24T15:30:41.560Z,28.40
2018-07-24T15:33:09.776Z,28.30
2018-07-24T15:35:38.005Z,28.20
2018-07-24T15:38:06.516Z,28.20
2018-07-24T15:40:34.745Z,28.20
2018-07-24T15:43:02.961Z,28.20
2018-07-24T15:45:31.192Z,28.20
2018-07-24T15:47:59.411Z,28.20
2018-07-24T15:50:27.656Z,28.30
2018-07-24T15:52:55.872Z,28.40
2018-07-24T15:55:24.108Z,28.50
2018-07-24T15:57:52.366Z,28.60
2018-07-24T16:00:20.608Z,28.80
2018-07-24T16:02:48.821Z,28.90
2018-07-24T16:05:17.027Z,28.80
2018-07-24T16:07:45.254Z,28.80
2018-07-24T16:10:13.461Z,28.70
2018-07-24T16:12:41.692Z,28.70
2018-07-24T16:15:09.918Z,28.70
2018-07-24T16:17:38.168Z,28.70
2018-07-24T16:20:06.588Z,28.50
2018-07-24T16:22:34.832Z,28.40
2018-07-24T16:25:03.168Z,28.20
2018-07-24T16:27:31.405Z,28.20
2018-07-24T16:29:59.625Z,28.20
2018-07-24T16:32:27.864Z,28.20
2018-07-24T16:34:56.080Z,28.30
2018-07-24T16:37:24.321Z,28.10
2018-07-24T16:39:52.542Z,28.10
2018-07-24T16:42:20.780Z,28.10
2018-07-24T16:44:49.011Z,28.10
2018-07-24T16:47:17.244Z,28.10
2018-07-24T16:49:45.455Z,28.00
2018-07-24T16:52:13.704Z,28.00
2018-07-24T16:54:41.921Z,27.90
2018-07-24T16:57:10.260Z,27.70
2018-07-24T16:59:38.491Z,27.70
2018-07-24T17:02:06.773Z,27.60
2018-07-24T17:04:34.997Z,27.60
2018-07-24T17:07:03.227Z,27.60
2018-07-24T17:09:31.464Z,27.60
2018-07-24T17:11:59.710Z,27.60
2018-07-24T17:14:27.924Z,27.70
2018-07-24T17:16:56.174Z,27.70
2018-07-24T17:19:24.396Z,27.70
2018-07-24T17:21:52.680Z,27.60
2018-07-24T17:24:21.102Z,27.60
2018-07-24T17:26:49.345Z,27.50
2018-07-24T17:29:17.556Z,27.50
2018-07-24T17:31:45.795Z,27.40
2018-07-24T17:34:14.021Z,27.40
2018-07-24T17:36:42.250Z,27.30
2018-07-24T17:39:11.112Z,27.20
2018-07-24T17:41:39.425Z,27.20
2018-07-24T17:44:07.829Z,27.10
2018-07-24T17:46:36.465Z,27.00
2018-07-24T17:49:04.821Z,27.00
2018-07-24T17:51:33.063Z,26.90
2018-07-24T17:54:01.272Z,26.90
2018-07-24T17:56:29.525Z,26.80
2018-07-24T17:58:57.786Z,26.70
2018-07-24T18:01:25.988Z,26.70
2018-07-24T18:03:54.224Z,26.60
2018-07-24T18:06:22.441Z,26.50
2018-07-24T18:08:50.680Z,26.40
2018-07-24T18:11:18.888Z,26.40
2018-07-24T18:13:47.127Z,26.30
2018-07-24T18:16:15.340Z,26.20
2018-07-24T18:18:43.644Z,26.10
2018-07-24T18:21:11.857Z,26.00
2018-07-24T18:23:40.112Z,25.90
2018-07-24T18:26:08.328Z,25.80
2018-07-24T18:28:36.565Z,25.60
2018-07-24T18:31:04.789Z,25.50
2018-07-24T18:33:33.024Z,25.50
2018-07-24T18:36:01.238Z,25.30
2018-07-24T18:38:29.531Z,25.20
2018-07-24T18:40:57.713Z,25.10
2018-07-24T18:43:25.951Z,25.00
2018-07-24T18:45:54.176Z,24.80
2018-07-24T18:48:22.421Z,24.80
2018-07-24T18:50:50.639Z,24.60
2018-07-24T18:53:18.892Z,24.50
2018-07-24T18:55:47.112Z,24.40
2018-07-24T18:58:15.349Z,24.30
2018-07-24T19:00:43.620Z,24.30
2018-07-24T19:03:11.848Z,24.10
2018-07-24T19:05:40.068Z,24.00
2018-07-24T19:08:08.302Z,23.90
2018-07-24T19:10:36.534Z,23.70
2018-07-24T19:13:04.786Z,23.60
2018-07-24T19:15:33.013Z,23.50
2018-07-24T19:18:01.307Z,23.40
2018-07-24T19:20:29.515Z,23.30
2018-07-24T19:22:57.773Z,23.10
2018-07-24T19:25:25.986Z,23.10
2018-07-24T19:27:54.592Z,22.90
2018-07-24T19:30:22.809Z,22.90
2018-07-24T19:32:51.044Z,22.80
2018-07-24T19:35:19.267Z,22.70
2018-07-24T19:37:47.504Z,22.60
2018-07-24T19:40:15.720Z,22.50
2018-07-24T19:42:43.950Z,22.40
2018-07-24T19:45:12.160Z,22.30
2018-07-24T19:47:40.392Z,22.30
2018-07-24T19:50:08.605Z,22.20
2018-07-24T19:52:36.855Z,22.10
2018-07-24T19:55:05.276Z,22.00
